Friday, October 19, 2018, 3:43 AM EDT
Back to Local

KMFV, Melfa / Accomack Airport

Location: Melfa, VA, United States Lat: 37.65
Local Time: 3:43 AM EDT ( 7:43 GMT) Lon: -75.767
Time Zone: US/Eastern Elev: 49 ft

Show me the last for .
Show Decoded

2018-10-19 03:35 METAR KMFV 190735Z AUTO 00000KT 10SM CLR 04/04 A3038 RMK AO2 T00410036 =
2018-10-19 03:15 METAR KMFV 190715Z AUTO 00000KT 10SM CLR 04/04 A3038 RMK AO2 T00400035 =
2018-10-19 02:55 METAR KMFV 190655Z AUTO 00000KT 10SM CLR 04/04 A3038 RMK AO2 T00400035 =
2018-10-19 02:35 METAR KMFV 190635Z AUTO 00000KT 10SM CLR 04/04 A3039 RMK AO2 T00420037 =
2018-10-19 02:15 METAR KMFV 190615Z AUTO 14003KT 10SM CLR 04/03 A3039 RMK AO2 T00400034 =
2018-10-19 01:55 METAR KMFV 190555Z AUTO 00000KT 10SM CLR 04/03 A3039 RMK AO2 T00400033 10066
                 20039 =
2018-10-19 01:35 METAR KMFV 190535Z AUTO 14003KT 10SM CLR 04/03 A3039 RMK AO2 T00400034 =
2018-10-19 01:15 METAR KMFV 190515Z AUTO 00000KT 10SM CLR 04/04 A3039 RMK AO2 T00420036 =
2018-10-19 00:55 METAR KMFV 190455Z AUTO 00000KT 10SM CLR 04/04 A3039 RMK AO2 T00430036 401570039
                 =
2018-10-19 00:35 METAR KMFV 190435Z AUTO 00000KT 10SM CLR 04/04 A3039 RMK AO2 T00410036 =
2018-10-19 00:15 METAR KMFV 190415Z AUTO 00000KT 10SM CLR 05/04 A3039 RMK AO2 T00450038 =
2018-10-18 23:55 METAR KMFV 190355Z AUTO 14004KT 10SM CLR 04/04 A3040 RMK AO2 T00430036 =
2018-10-18 23:35 METAR KMFV 190335Z AUTO 00000KT 10SM CLR 04/04 A3040 RMK AO2 T00440037 =
2018-10-18 23:15 METAR KMFV 190315Z AUTO 00000KT 10SM CLR 05/04 A3041 RMK AO2 T00500043 =
2018-10-18 22:55 METAR KMFV 190255Z AUTO 00000KT 10SM CLR 05/04 A3042 RMK AO2 T00540044 =
2018-10-18 22:35 METAR KMFV 190235Z AUTO 17003KT 10SM CLR 05/04 A3042 RMK AO2 T00510044 =
2018-10-18 22:15 METAR KMFV 190215Z AUTO 00000KT 10SM CLR 06/05 A3042 RMK AO2 T00570047 =
2018-10-18 21:55 METAR KMFV 190155Z AUTO 00000KT 10SM CLR 06/05 A3041 RMK AO2 T00560046 =
2018-10-18 21:35 METAR KMFV 190135Z AUTO 00000KT 10SM CLR 06/05 A3042 RMK AO2 T00560047 =
2018-10-18 21:15 METAR KMFV 190115Z AUTO 00000KT 10SM CLR 06/05 A3041 RMK AO2 T00580047 =
2018-10-18 20:55 METAR KMFV 190055Z AUTO 00000KT 10SM CLR 06/05 A3041 RMK AO2 T00580048 =
2018-10-18 20:35 METAR KMFV 190035Z AUTO 00000KT 10SM CLR 06/05 A3041 RMK AO2 T00600049 =
2018-10-18 20:15 METAR KMFV 190015Z AUTO 00000KT 10SM CLR 07/05 A3040 RMK AO2 T00650050 =
2018-10-18 19:55 METAR KMFV 182355Z AUTO 15003KT 10SM CLR 06/05 A3040 RMK AO2 T00620047 10140
                 20062 =
2018-10-18 19:35 METAR KMFV 182335Z AUTO 00000KT 10SM CLR 07/05 A3040 RMK AO2 T00700052 =
2018-10-18 19:15 METAR KMFV 182315Z AUTO 34003KT 10SM CLR 08/05 A3039 RMK AO2 T00830050 =
2018-10-18 18:55 METAR KMFV 182255Z AUTO 00000KT 10SM CLR 08/05 A3039 RMK AO2 T00800050 =
2018-10-18 18:35 METAR KMFV 182235Z AUTO 34003KT 10SM CLR 10/04 A3038 RMK AO2 T00990044 =
2018-10-18 18:15 METAR KMFV 182215Z AUTO 32004KT 10SM CLR 11/04 A3038 RMK AO2 T01130039 =
2018-10-18 17:55 METAR KMFV 182155Z AUTO 34005KT 10SM CLR 12/03 A3038 RMK AO2 T01220030 =
2018-10-18 17:35 METAR KMFV 182135Z AUTO 33003KT 10SM CLR 13/03 A3038 RMK AO2 T01270028 =
2018-10-18 17:15 METAR KMFV 182115Z AUTO 32004KT 10SM CLR 13/03 A3038 RMK AO2 T01300028 =
2018-10-18 16:55 METAR KMFV 182055Z AUTO 34005KT 310V020 10SM CLR 13/03 A3038 RMK AO2 T01320027 =
2018-10-18 16:35 METAR KMFV 182035Z AUTO 34005G14KT 10SM CLR 13/02 A3038 RMK AO2 T01310023 =
2018-10-18 16:15 METAR KMFV 182015Z AUTO 33008G14KT 280V020 10SM CLR 13/02 A3038 RMK AO2
                 T01320019 =
2018-10-18 15:55 METAR KMFV 181955Z AUTO 34007G17KT 10SM CLR 13/02 A3038 RMK AO2 T01330017 =
2018-10-18 15:35 METAR KMFV 181935Z AUTO 33010G14KT 290V010 10SM CLR 14/02 A3038 RMK AO2
                 T01380022 =
2018-10-18 15:15 METAR KMFV 181915Z AUTO 33010G17KT 300V360 10SM CLR 14/02 A3039 RMK AO2
                 T01390020 =
2018-10-18 14:55 METAR KMFV 181855Z AUTO 33008G15KT 310V020 10SM CLR 13/02 A3039 RMK AO2
                 T01330016 =
2018-10-18 14:35 METAR KMFV 181835Z AUTO 35007G17KT 10SM CLR 13/01 A3039 RMK AO2 T01340012 =
2018-10-18 14:15 METAR KMFV 181815Z AUTO 31011G17KT 10SM CLR 14/02 A3039 RMK AO2 T01360021 =
2018-10-18 13:55 METAR KMFV 181755Z AUTO 34009G18KT 290V010 10SM CLR 14/02 A3040 RMK AO2
                 T01360019 10140 20097 =
2018-10-18 13:35 METAR KMFV 181735Z AUTO 36009G17KT 290V020 10SM CLR 14/02 A3040 RMK AO2
                 T01350019 =
2018-10-18 13:15 METAR KMFV 181715Z AUTO 33010G18KT 300V020 10SM CLR 14/02 A3041 RMK AO2
                 T01380019 =
2018-10-18 12:55 METAR KMFV 181655Z AUTO 31013G18KT 10SM CLR 14/02 A3042 RMK AO2 T01370015 =
2018-10-18 12:35 METAR KMFV 181635Z AUTO 34009G18KT 280V040 10SM CLR 14/02 A3043 RMK AO2
                 T01350017 =
2018-10-18 12:15 METAR KMFV 181615Z AUTO 31015G18KT 10SM CLR 14/02 A3043 RMK AO2 T01350016 =
2018-10-18 11:55 METAR KMFV 181555Z AUTO 32010G18KT 10SM CLR 14/02 A3042 RMK AO2 T01370015 =
2018-10-18 11:35 METAR KMFV 181535Z AUTO 32009G20KT 10SM SCT048 13/01 A3043 RMK AO2 T01340009 =
2018-10-18 11:15 METAR KMFV 181515Z AUTO 32010G16KT 10SM SCT048 13/01 A3043 RMK AO2 T01330013 =
2018-10-18 10:55 METAR KMFV 181455Z AUTO 01009KT 10SM CLR 13/02 A3042 RMK AO2 T01340018 =
2018-10-18 10:35 METAR KMFV 181435Z AUTO 01005G14KT 10SM CLR 13/01 A3042 RMK AO2 T01280013 =
2018-10-18 10:15 METAR KMFV 181415Z AUTO 36008KT 330V040 10SM CLR 13/01 A3042 RMK AO2 T01270012 =
2018-10-18 09:55 METAR KMFV 181355Z AUTO 35006G15KT 300V020 10SM CLR 12/01 A3042 RMK AO2
                 T01210006 =
2018-10-18 09:35 METAR KMFV 181335Z AUTO 01013KT 10SM CLR 12/01 A3041 RMK AO2 T01190005 =
2018-10-18 09:15 METAR KMFV 181315Z AUTO 02010G19KT 340V050 10SM CLR 12/01 A3040 RMK AO2
                 T01150007 =
2018-10-18 08:55 METAR KMFV 181255Z AUTO 02007G18KT 10SM CLR 11/01 A3040 RMK AO2 T01110008 =
2018-10-18 08:35 METAR KMFV 181235Z AUTO 02009G17KT 10SM CLR 11/01 A3039 RMK AO2 T01070011 =
2018-10-18 08:15 METAR KMFV 181215Z AUTO 03007G14KT 10SM CLR 10/01 A3038 RMK AO2 T01000013 =
2018-10-18 07:55 METAR KMFV 181155Z AUTO 02006KT 10SM CLR 10/02 A3037 RMK AO2 T00980017 10150
                 20097 =
2018-10-18 07:35 METAR KMFV 181135Z AUTO 03010G16KT 10SM CLR 11/01 A3036 RMK AO2 T01050005 =
2018-10-18 07:15 METAR KMFV 181115Z AUTO 36008G15KT 10SM CLR 11/01 A3035 RMK AO2 T01050008 =
2018-10-18 06:55 METAR KMFV 181055Z AUTO 36010G16KT 10SM CLR 11/02 A3034 RMK AO2 T01070015 =
2018-10-18 06:35 METAR KMFV 181035Z AUTO 35012G21KT 320V020 10SM CLR 11/01 A3033 RMK AO2
                 T01110011 =
2018-10-18 06:15 METAR KMFV 181015Z AUTO 35008KT 10SM CLR 11/03 A3032 RMK AO2 T01100027 =
2018-10-18 05:55 METAR KMFV 180955Z AUTO 01006KT 10SM CLR 11/05 A3031 RMK AO2 T01070045 =
2018-10-18 05:35 METAR KMFV 180935Z AUTO 04003KT 10SM CLR 10/05 A3030 RMK AO2 T01010050 =
2018-10-18 05:15 METAR KMFV 180915Z AUTO 04005KT 10SM CLR 10/05 A3030 RMK AO2 T01020048 =
2018-10-18 04:55 METAR KMFV 180855Z AUTO 04007KT 10SM CLR 11/05 A3030 RMK AO2 T01130050 =
2018-10-18 04:35 METAR KMFV 180835Z AUTO 01009G19KT 10SM CLR 12/05 A3028 RMK AO2 T01200050 =
2018-10-18 04:15 METAR KMFV 180815Z AUTO 36009G16KT 10SM CLR 12/05 A3028 RMK AO2 T01220052 =
2018-10-18 03:55 METAR KMFV 180755Z AUTO 36010G14KT 10SM CLR 13/05 A3027 RMK AO2 T01260048 PNO =

Support USWX by starting your Amazon purchase here.